Terminal Aerodrome Forecast
Issued by NWS

Current Version | Previous Version | Graphics & Text | Print | Product List | Glossary On
Versions: 1 2 3 4 5 6 7 8 9 10 11 12 13 14 15 16 17 18 19
000
FTUS41 KILN 311800 AAA
TAFLCK
TAF AMD
KLCK 311824Z 3118/0118 24012G22KT P6SM VCSH OVC025
      TEMPO 3118/3119 5SM -SHRA
     FM311900 26012G22KT P6SM -DZ OVC020
     FM312200 32011KT P6SM OVC015
     FM010300 35007KT 5SM BR OVC007
     FM011300 02009KT P6SM VCSH OVC020=

USA.gov is the U.S. government's official web portal to all federal, state and local government web resources and services.